Time;durP1;ratioP1;P1;durP2;ratioP2;P2;SDS_P1;SDS_P2;PMS_P1;PMS_P2;Temp;Humidity;BMP_temperature;BMP_pressure;BME280_temperature;BME280_humidity;BME280_pressure;Samples;Min_cycle;Max_cycle;Signal;HPM_P1;HPM_P2
2024/02/25 00:02:06;;;;;;;;;;;;;;;3.18;100.00;99373.69;4981595;28;20478;-67
2024/02/25 00:04:35;;;;;;;16.92;7.57;;;;;;;3.13;100.00;99373.00;5008057;28;19926;-71
2024/02/25 00:07:03;;;;;;;13.68;7.40;;;;;;;2.99;100.00;99354.28;4987938;28;20054;-67
2024/02/25 00:09:31;;;;;;;11.70;7.47;;;;;;;3.00;100.00;99362.97;4994116;28;20043;-68
2024/02/25 00:12:00;;;;;;;14.10;8.05;;;;;;;3.00;100.00;99370.81;4987624;28;20039;-69
2024/02/25 00:14:31;;;;;;;;;;;;;;;2.96;100.00;99374.47;4983403;28;20069;-68
2024/02/25 00:17:01;;;;;;;14.13;7.55;;;;;;;2.97;100.00;99369.19;4977043;28;19922;-71
2024/02/25 00:19:30;;;;;;;12.25;8.00;;;;;;;2.91;100.00;99372.00;4962329;28;20049;-70
2024/02/25 00:21:58;;;;;;;14.02;7.90;;;;;;;2.93;100.00;99367.56;4975158;28;20050;-70
2024/02/25 00:24:26;;;;;;;12.50;7.38;;;;;;;2.90;100.00;99375.50;4971426;28;20435;-71
2024/02/25 00:26:57;;;;;;;12.52;7.50;;;;;;;2.91;100.00;99381.59;4960478;28;20389;-70
2024/02/25 00:29:26;;;;;;;11.50;7.30;;;;;;;2.87;100.00;99377.34;4965985;28;20768;-69
2024/02/25 00:31:54;;;;;;;11.90;7.43;;;;;;;2.81;100.00;99371.44;4968208;28;20270;-69
2024/02/25 00:34:22;;;;;;;11.95;7.18;;;;;;;2.81;100.00;99365.34;4967228;28;20061;-71
2024/02/25 00:36:50;;;;;;;12.02;7.57;;;;;;;2.78;100.00;99363.69;4965079;28;20046;-71
2024/02/25 00:39:18;;;;;;;12.68;7.15;;;;;;;2.81;100.00;99360.13;4970670;28;20046;-69
2024/02/25 00:41:51;;;;;;;12.02;7.15;;;;;;;2.64;100.00;99338.88;4984000;28;20062;-68
2024/02/25 00:44:23;;;;;;;13.75;8.90;;;;;;;2.79;100.00;99354.09;4986907;28;20067;-69
2024/02/25 00:47:04;;;;;;;11.13;6.50;;;;;;;2.79;100.00;99352.31;4966954;28;20055;-69
2024/02/25 00:49:31;;;;;;;10.43;6.82;;;;;;;2.79;100.00;99349.72;4970766;28;20054;-70
2024/02/25 00:51:59;;;;;;;13.60;6.95;;;;;;;2.79;100.00;99339.25;4975106;28;20061;-72
2024/02/25 00:54:28;;;;;;;12.82;7.07;;;;;;;2.80;100.00;99340.97;4989987;28;20057;-69
2024/02/25 00:56:57;;;;;;;9.40;6.45;;;;;;;2.82;100.00;99340.91;4977102;28;20523;-71
2024/02/25 00:59:25;;;;;;;10.90;6.72;;;;;;;2.80;100.00;99338.34;4965505;28;21103;-71
2024/02/25 01:01:55;;;;;;;9.77;6.78;;;;;;;2.80;100.00;99343.59;4978876;28;20038;-70
2024/02/25 01:04:23;;;;;;;11.73;6.63;;;;;;;2.78;100.00;99339.31;4966892;28;20310;-70
2024/02/25 01:06:51;;;;;;;10.63;6.20;;;;;;;2.78;100.00;99328.84;4965728;28;20512;-70
2024/02/25 01:09:20;;;;;;;10.93;6.53;;;;;;;2.77;100.00;99324.53;4969441;28;20058;-71
2024/02/25 01:11:49;;;;;;;11.27;6.75;;;;;;;2.78;100.00;99324.47;4952143;28;20534;-69
2024/02/25 01:14:19;;;;;;;8.82;6.03;;;;;;;2.79;100.00;99328.78;4980850;28;20129;-70
2024/02/25 01:16:57;;;;;;;11.27;6.60;;;;;;;2.81;100.00;99320.91;4939717;28;20046;-70
2024/02/25 01:19:25;;;;;;;8.82;6.22;;;;;;;2.81;100.00;99318.28;4967723;28;20050;-70
2024/02/25 01:21:57;;;;;;;10.07;6.28;;;;;;;2.85;100.00;99325.09;4979716;28;20049;-72
2024/02/25 01:24:25;;;;;;;9.68;6.40;;;;;;;2.80;100.00;99306.97;4968351;28;20046;-70
2024/02/25 01:26:53;;;;;;;9.60;6.47;;;;;;;2.87;100.00;99318.06;4964768;28;20618;-70
2024/02/25 01:29:21;;;;;;;9.98;6.22;;;;;;;2.84;100.00;99310.31;4972900;28;20074;-71
2024/02/25 01:31:50;;;;;;;8.63;5.63;;;;;;;2.79;100.00;99309.63;4952240;28;20054;-70
2024/02/25 01:34:25;;;;;;;10.95;5.57;;;;;;;2.77;100.00;99309.69;4965354;28;20043;-70
2024/02/25 01:36:53;;;;;;;9.95;6.13;;;;;;;2.75;100.00;99310.63;4957947;28;20097;-69
2024/02/25 01:39:22;;;;;;;9.35;6.28;;;;;;;2.72;100.00;99308.13;4951920;28;20097;-69
2024/02/25 01:41:52;;;;;;;8.73;5.80;;;;;;;2.74;100.00;99311.53;4959662;28;20054;-69
2024/02/25 01:44:20;;;;;;;9.32;5.72;;;;;;;2.76;100.00;99312.34;4983551;28;20157;-70
2024/02/25 01:46:48;;;;;;;10.40;6.35;;;;;;;2.77;100.00;99311.44;4953760;28;20114;-69
2024/02/25 01:49:16;;;;;;;8.27;5.65;;;;;;;2.78;100.00;99316.63;4945522;28;20043;-69
2024/02/25 01:51:49;;;;;;;7.65;5.72;;;;;;;2.84;100.00;99318.16;4947050;28;20050;-70
2024/02/25 01:54:19;;;;;;;8.35;5.85;;;;;;;2.89;100.00;99310.19;4947501;28;20487;-68
2024/02/25 01:56:48;;;;;;;;;;;;;;;2.96;100.00;99307.31;4937789;28;20242;-67
2024/02/25 01:59:16;;;;;;;8.73;5.72;;;;;;;3.01;100.00;99309.75;4963423;28;19936;-70
2024/02/25 02:01:43;;;;;;;10.95;5.78;;;;;;;3.04;100.00;99296.59;4954982;28;20043;-70
2024/02/25 02:04:12;;;;;;;8.07;5.50;;;;;;;3.13;100.00;99310.22;4975087;28;20058;-72
2024/02/25 02:06:42;;;;;;;7.78;5.13;;;;;;;3.14;100.00;99288.41;4954198;28;20538;-70
2024/02/25 02:09:16;;;;;;;10.07;5.68;;;;;;;3.15;100.00;99284.00;4974573;28;20550;-69
2024/02/25 02:11:56;;;;;;;7.45;5.43;;;;;;;3.22;100.00;99292.50;4969784;28;20416;-69
2024/02/25 02:14:24;;;;;;;;;;;;;;;3.24;100.00;99288.94;4969744;28;20550;-70
2024/02/25 02:16:53;;;;;;;8.63;5.25;;;;;;;3.21;100.00;99288.16;4962978;28;20404;-66
2024/02/25 02:19:21;;;;;;;10.70;5.43;;;;;;;3.25;100.00;99289.78;4981989;28;20043;-71
2024/02/25 02:21:55;;;;;;;8.32;4.95;;;;;;;3.18;100.00;99279.50;4966619;28;20058;-70
2024/02/25 02:24:24;;;;;;;9.18;5.47;;;;;;;3.27;100.00;99283.59;4962509;28;20064;-70
2024/02/25 02:26:53;;;;;;;8.20;4.82;;;;;;;3.27;100.00;99280.97;4961055;28;20551;-69
2024/02/25 02:29:23;;;;;;;6.63;5.00;;;;;;;3.25;100.00;99272.31;4982657;28;20080;-71
2024/02/25 02:31:56;;;;;;;7.55;5.45;;;;;;;3.27;100.00;99277.50;4967387;28;20046;-70
2024/02/25 02:34:28;;;;;;;8.13;5.00;;;;;;;3.26;100.00;99273.19;4968084;28;20045;-71
2024/02/25 02:37:00;;;;;;;7.28;4.70;;;;;;;3.26;100.00;99262.72;4964273;28;20054;-68
2024/02/25 02:39:29;;;;;;;7.60;5.32;;;;;;;3.24;100.00;99268.00;4985366;28;20328;-69
2024/02/25 02:41:57;;;;;;;8.00;5.05;;;;;;;3.22;100.00;99255.88;5003042;28;20042;-70
2024/02/25 02:44:25;;;;;;;8.05;5.10;;;;;;;3.22;100.00;99261.09;4993709;28;20074;-68
2024/02/25 02:46:53;;;;;;;9.75;5.57;;;;;;;3.23;100.00;99258.44;4989364;28;20069;-66
2024/02/25 02:49:21;;;;;;;7.88;5.10;;;;;;;3.18;100.00;99253.34;4986211;28;20511;-70
2024/02/25 02:51:50;;;;;;;7.13;4.78;;;;;;;3.24;100.00;99260.16;4980078;28;20051;-70
2024/02/25 02:54:22;;;;;;;9.10;5.25;;;;;;;3.30;100.00;99259.94;4947522;28;20053;-70
2024/02/25 02:56:50;;;;;;;6.93;4.82;;;;;;;3.35;100.00;99257.13;4964557;28;20046;-67
2024/02/25 02:59:20;;;;;;;10.40;5.20;;;;;;;3.37;100.00;99257.94;4974566;28;20035;-70
2024/02/25 03:01:50;;;;;;;8.38;5.07;;;;;;;3.36;100.00;99258.84;4981537;28;20038;-70
2024/02/25 03:04:20;;;;;;;6.63;4.65;;;;;;;3.34;100.00;99256.28;4968327;28;20050;-72
2024/02/25 03:06:48;;;;;;;9.27;5.75;;;;;;;3.35;100.00;99260.59;4968237;28;20050;-67
2024/02/25 03:09:16;;;;;;;6.22;4.90;;;;;;;3.30;100.00;99244.25;4979420;28;20111;-71
2024/02/25 03:11:48;;;;;;;7.18;5.03;;;;;;;3.29;100.00;99249.53;4986766;28;20042;-69
2024/02/25 03:14:15;;;;;;;8.38;4.72;;;;;;;3.35;100.00;99262.38;4987224;28;20050;-71
2024/02/25 03:16:44;;;;;;;9.32;5.10;;;;;;;3.34;100.00;99258.91;4973799;28;20046;-68
2024/02/25 03:19:12;;;;;;;8.60;5.60;;;;;;;3.32;100.00;99257.25;5004606;28;20058;-70
2024/02/25 03:21:43;;;;;;;8.40;5.60;;;;;;;3.34;100.00;99260.66;4973905;28;20062;-69
2024/02/25 03:24:13;;;;;;;7.35;4.88;;;;;;;3.34;100.00;99253.66;4978872;28;20043;-69
2024/02/25 03:26:41;;;;;;;7.80;5.07;;;;;;;3.37;100.00;99253.56;4964081;28;20086;-69
2024/02/25 03:29:11;;;;;;;7.40;5.13;;;;;;;3.42;100.00;99256.03;4968441;28;20046;-70
2024/02/25 03:31:39;;;;;;;8.27;5.43;;;;;;;3.47;100.00;99248.84;4991377;28;20050;-71
2024/02/25 03:34:07;;;;;;;7.53;5.18;;;;;;;3.45;100.00;99248.91;4980091;28;20042;-69
2024/02/25 03:36:36;;;;;;;8.05;5.03;;;;;;;3.50;100.00;99246.13;4991656;28;20050;-69
2024/02/25 03:39:05;;;;;;;7.10;4.95;;;;;;;3.59;100.00;99255.41;4994498;28;20055;-67
2024/02/25 03:41:33;;;;;;;7.80;5.28;;;;;;;3.63;100.00;99251.75;4989230;28;20047;-68
2024/02/25 03:44:01;;;;;;;7.03;5.07;;;;;;;3.56;100.00;99232.81;4996917;28;20091;-70
2024/02/25 03:46:32;;;;;;;6.85;4.80;;;;;;;3.70;100.00;99250.63;4980285;28;20053;-67
2024/02/25 03:49:00;;;;;;;;;;;;;;;3.72;100.00;99247.03;4994127;28;20075;-68
2024/02/25 03:51:29;;;;;;;6.60;4.63;;;;;;;3.66;100.00;99236.78;4987345;28;19925;-68
2024/02/25 03:53:58;;;;;;;7.05;4.82;;;;;;;3.69;100.00;99238.44;4961080;28;20055;-69
2024/02/25 03:56:27;;;;;;;7.28;4.60;;;;;;;3.68;100.00;99236.72;4997911;28;20046;-68
2024/02/25 03:58:55;;;;;;;7.40;4.57;;;;;;;3.63;100.00;99226.44;4983060;28;20082;-72
2024/02/25 04:01:24;;;;;;;8.90;4.85;;;;;;;3.66;100.00;99239.41;4962866;28;20038;-69
2024/02/25 04:03:53;;;;;;;7.82;4.95;;;;;;;3.65;100.00;99240.31;4978896;28;20050;-68
2024/02/25 04:06:24;;;;;;;9.88;4.65;;;;;;;3.64;100.00;99242.97;4979802;28;20518;-71
2024/02/25 04:08:54;;;;;;;6.47;4.57;;;;;;;3.65;100.00;99248.16;4966873;28;20055;-72
2024/02/25 04:11:22;;;;;;;6.75;4.70;;;;;;;3.65;100.00;99240.31;4969698;28;20070;-69
2024/02/25 04:13:50;;;;;;;5.22;4.05;;;;;;;3.67;100.00;99233.25;4984399;28;20061;-70
2024/02/25 04:16:21;;;;;;;6.43;4.22;;;;;;;3.68;100.00;99221.88;4967037;28;20043;-70
2024/02/25 04:18:49;;;;;;;5.75;3.90;;;;;;;3.82;100.00;99231.81;4964077;28;20050;-71
2024/02/25 04:21:19;;;;;;;5.38;2.72;;;;;;;3.93;100.00;99226.19;4970532;28;20043;-71
2024/02/25 04:23:47;;;;;;;4.78;2.28;;;;;;;4.06;100.00;99230.03;4957217;28;20049;-71
2024/02/25 04:26:21;;;;;;;2.15;1.83;;;;;;;4.18;100.00;99227.78;4972750;28;20533;-70
2024/02/25 04:28:49;;;;;;;2.47;1.80;;;;;;;4.28;100.00;99228.25;4960798;28;20058;-71
2024/02/25 04:31:18;;;;;;;7.55;2.05;;;;;;;4.46;100.00;99221.44;4966512;28;20073;-70
2024/02/25 04:33:46;;;;;;;3.10;1.50;;;;;;;4.51;100.00;99216.88;4981812;28;20439;-70
2024/02/25 04:36:18;;;;;;;2.97;1.83;;;;;;;4.57;100.00;99211.34;4985529;28;20053;-69
2024/02/25 04:38:50;;;;;;;2.45;1.60;;;;;;;4.62;100.00;99204.16;4980789;28;20060;-71
2024/02/25 04:41:20;;;;;;;3.28;1.92;;;;;;;4.68;100.00;99209.16;4969170;28;20499;-71
2024/02/25 04:43:49;;;;;;;2.97;1.80;;;;;;;4.69;100.00;99207.38;4973045;28;20035;-70
2024/02/25 04:46:17;;;;;;;3.28;1.77;;;;;;;4.73;100.00;99217.66;4988854;28;20042;-70
2024/02/25 04:48:45;;;;;;;2.67;1.40;;;;;;;4.86;100.00;99218.03;4970095;28;20054;-71
2024/02/25 04:51:15;;;;;;;3.55;1.48;;;;;;;4.87;100.00;99211.84;4989606;28;21641;-69
2024/02/25 04:53:46;;;;;;;2.70;1.60;;;;;;;4.87;100.00;99214.47;4975505;28;20046;-71
2024/02/25 04:56:15;;;;;;;2.80;1.52;;;;;;;4.93;100.00;99201.09;4971204;28;20066;-69
2024/02/25 04:58:43;;;;;;;5.32;1.55;;;;;;;4.88;100.00;99219.63;4980959;28;20086;-70
2024/02/25 05:01:14;;;;;;;2.65;1.40;;;;;;;4.84;100.00;99220.72;4983192;28;20050;-67
2024/02/25 05:03:41;;;;;;;;;;;;;;;4.85;100.00;99221.56;4970570;28;20535;-69
2024/02/25 05:06:09;;;;;;;2.58;1.60;;;;;;;4.86;100.00;99236.38;4970880;28;19926;-70
2024/02/25 05:08:37;;;;;;;3.75;1.50;;;;;;;4.84;100.00;99240.84;4971925;28;20405;-71
2024/02/25 05:11:06;;;;;;;3.28;1.80;;;;;;;4.83;100.00;99237.34;4985771;28;20066;-71
2024/02/25 05:13:36;;;;;;;2.50;1.80;;;;;;;4.86;100.00;99231.13;4986385;28;20050;-69
2024/02/25 05:16:08;;;;;;;3.17;1.80;;;;;;;4.87;100.00;99236.31;4995455;28;20030;-68
2024/02/25 05:18:45;;;;;;;2.33;1.60;;;;;;;4.94;100.00;99234.28;5005826;28;20066;-68
2024/02/25 05:21:14;;;;;;;2.80;1.58;;;;;;;4.88;100.00;99224.88;4994236;28;20042;-67
2024/02/25 05:23:50;;;;;;;3.75;1.73;;;;;;;4.97;100.00;99231.53;4979063;28;20471;-69
2024/02/25 05:26:18;;;;;;;4.13;1.60;;;;;;;4.95;100.00;99241.22;4971036;28;20042;-71
2024/02/25 05:28:48;;;;;;;2.70;1.50;;;;;;;4.91;100.00;99237.03;4968580;28;20039;-71
2024/02/25 05:31:17;;;;;;;3.47;1.50;;;;;;;4.87;100.00;99222.34;4984702;28;20053;-70
2024/02/25 05:33:47;;;;;;;2.75;1.50;;;;;;;4.97;100.00;99230.66;4969398;28;20050;-71
2024/02/25 05:36:17;;;;;;;3.70;1.50;;;;;;;5.02;100.00;99233.97;4969492;28;20039;-71
2024/02/25 05:38:45;;;;;;;3.75;1.45;;;;;;;4.98;100.00;99238.47;4966744;28;20086;-70
2024/02/25 05:41:15;;;;;;;3.55;1.60;;;;;;;4.95;100.00;99235.97;4952030;28;20136;-71
2024/02/25 05:43:46;;;;;;;3.00;1.80;;;;;;;4.98;100.00;99233.22;4968871;28;20054;-69
2024/02/25 05:46:16;;;;;;;2.58;1.67;;;;;;;5.02;100.00;99234.81;4966034;28;20582;-69
2024/02/25 05:48:44;;;;;;;2.45;1.70;;;;;;;4.99;100.00;99229.69;4962932;28;20050;-68
2024/02/25 05:51:13;;;;;;;3.42;1.75;;;;;;;5.03;100.00;99236.53;4963408;28;20038;-69
2024/02/25 05:53:41;;;;;;;7.40;2.03;;;;;;;5.03;100.00;99241.78;4967304;28;20051;-69
2024/02/25 05:56:10;;;;;;;1.65;1.50;;;;;;;5.00;100.00;99246.28;4984434;28;20074;-70
2024/02/25 05:58:39;;;;;;;3.28;2.08;;;;;;;4.94;100.00;99226.41;4946009;28;20054;-70
2024/02/25 06:01:11;;;;;;;3.10;1.95;;;;;;;4.97;100.00;99242.03;4962989;28;20040;-71
2024/02/25 06:03:41;;;;;;;3.47;1.77;;;;;;;4.96;100.00;99248.19;4946266;28;20053;-71
2024/02/25 06:06:11;;;;;;;2.60;1.70;;;;;;;4.94;100.00;99252.63;4935288;28;20071;-71
2024/02/25 06:08:40;;;;;;;;;;;;;;;4.92;100.00;99257.94;4961102;28;20051;-71
2024/02/25 06:11:08;;;;;;;3.45;1.90;;;;;;;4.90;100.00;99238.78;4947434;28;20068;-72
2024/02/25 06:13:36;;;;;;;3.05;1.90;;;;;;;5.01;100.00;99253.25;4966794;28;20057;-69
2024/02/25 06:16:05;;;;;;;2.63;1.67;;;;;;;5.07;100.00;99252.97;4963403;28;20074;-71
2024/02/25 06:18:33;;;;;;;2.92;1.77;;;;;;;5.03;100.00;99256.66;4931471;28;20146;-68
2024/02/25 06:21:04;;;;;;;3.38;2.00;;;;;;;4.99;100.00;99258.56;4947171;28;20126;-70
2024/02/25 06:23:31;;;;;;;3.97;1.80;;;;;;;4.97;100.00;99252.50;4955028;28;20063;-71
2024/02/25 06:26:00;;;;;;;5.57;2.15;;;;;;;5.02;100.00;99260.19;4958406;28;20042;-68
2024/02/25 06:28:28;;;;;;;4.53;2.10;;;;;;;5.06;100.00;99261.75;4946637;28;20047;-70
2024/02/25 06:30:58;;;;;;;4.50;2.20;;;;;;;5.11;100.00;99265.03;4942314;28;20058;-70
2024/02/25 06:33:26;;;;;;;2.92;2.00;;;;;;;5.10;100.00;99258.09;4964983;28;20472;-70
2024/02/25 06:35:54;;;;;;;2.88;2.10;;;;;;;5.10;100.00;99266.81;4964566;28;20050;-69
2024/02/25 06:38:25;;;;;;;4.75;2.38;;;;;;;5.09;100.00;99254.59;4945552;28;20051;-69
2024/02/25 06:40:54;;;;;;;2.65;1.90;;;;;;;5.14;100.00;99254.41;4949370;28;20054;-69
2024/02/25 06:43:23;;;;;;;3.80;2.17;;;;;;;5.13;100.00;99276.31;4959253;28;20051;-70
2024/02/25 06:45:51;;;;;;;4.55;2.17;;;;;;;5.17;100.00;99262.16;4945646;28;20055;-69
2024/02/25 06:48:22;;;;;;;3.35;2.30;;;;;;;5.18;100.00;99275.22;4961970;28;20050;-70
2024/02/25 06:50:51;;;;;;;4.05;2.20;;;;;;;5.18;100.00;99272.59;4960448;28;20062;-70
2024/02/25 06:53:19;;;;;;;5.43;2.22;;;;;;;5.18;100.00;99277.00;4946571;28;20066;-70
2024/02/25 06:55:48;;;;;;;3.20;2.00;;;;;;;5.17;100.00;99265.66;4960474;28;20063;-70
2024/02/25 06:58:18;;;;;;;3.50;2.13;;;;;;;5.24;100.00;99277.56;4945947;28;20046;-71
2024/02/25 07:00:48;;;;;;;3.38;2.10;;;;;;;5.20;100.00;99262.88;4946562;28;20043;-71
2024/02/25 07:03:18;;;;;;;5.35;2.30;;;;;;;5.31;100.00;99282.56;4949984;28;20094;-71
2024/02/25 07:05:46;;;;;;;4.13;2.08;;;;;;;5.33;100.00;99283.34;4970626;28;20058;-71
2024/02/25 07:08:17;;;;;;;2.78;2.00;;;;;;;5.39;100.00;99285.69;4957148;28;20056;-71
2024/02/25 07:10:45;;;;;;;2.70;1.90;;;;;;;5.42;100.00;99281.16;4954589;28;20060;-69
2024/02/25 07:13:15;;;;;;;4.90;2.10;;;;;;;5.51;100.00;99282.56;4965529;28;20055;-69
2024/02/25 07:15:43;;;;;;;4.57;2.50;;;;;;;5.55;100.00;99278.84;4956642;28;20496;-70
2024/02/25 07:18:14;;;;;;;4.97;1.77;;;;;;;5.55;100.00;99273.59;4918479;28;20129;-71
2024/02/25 07:20:44;;;;;;;3.55;2.00;;;;;;;5.69;100.00;99288.75;4947683;28;20408;-69
2024/02/25 07:23:12;;;;;;;4.00;2.50;;;;;;;5.76;100.00;99285.78;4949360;28;20133;-70
2024/02/25 07:25:41;;;;;;;3.28;2.20;;;;;;;5.82;100.00;99279.41;4952305;28;20043;-70
2024/02/25 07:28:10;;;;;;;2.80;2.00;;;;;;;5.80;100.00;99271.59;4944605;28;20058;-70
2024/02/25 07:30:41;;;;;;;4.07;1.90;;;;;;;5.79;100.00;99264.63;4935238;28;20099;-69
2024/02/25 07:33:09;;;;;;;2.97;1.80;;;;;;;5.90;100.00;99272.91;4963127;28;20051;-70
2024/02/25 07:35:38;;;;;;;2.55;1.80;;;;;;;6.02;100.00;99276.75;4959894;28;20463;-71
2024/02/25 07:38:07;;;;;;;3.05;1.60;;;;;;;6.03;100.00;99286.31;4983163;28;20132;-68
2024/02/25 07:40:35;;;;;;;2.55;1.63;;;;;;;6.10;100.00;99290.38;4969971;28;20906;-72
2024/02/25 07:43:05;;;;;;;3.17;1.60;;;;;;;6.09;100.00;99283.44;4974629;28;20047;-69
2024/02/25 07:45:33;;;;;;;2.47;1.48;;;;;;;6.10;100.00;99284.28;4972410;28;20053;-72
2024/02/25 07:48:05;;;;;;;2.88;1.60;;;;;;;6.08;100.00;99289.59;4974197;28;20047;-68
2024/02/25 07:50:36;;;;;;;2.30;1.67;;;;;;;5.97;100.00;99265.59;5008499;28;20039;-67
2024/02/25 07:53:05;;;;;;;3.20;1.80;;;;;;;6.12;100.00;99291.19;4986860;28;20065;-67
2024/02/25 07:55:36;;;;;;;1.70;1.40;;;;;;;6.19;100.00;99283.84;4985285;28;20125;-68
2024/02/25 07:58:06;;;;;;;2.63;1.65;;;;;;;6.26;100.00;99290.53;4990691;28;20422;-69
2024/02/25 08:00:34;;;;;;;2.72;1.73;;;;;;;6.30;100.00;99289.44;4966177;28;20417;-71
2024/02/25 08:03:03;;;;;;;3.45;1.58;;;;;;;6.27;100.00;99274.69;4990827;28;20070;-70
2024/02/25 08:05:34;;;;;;;3.15;1.60;;;;;;;6.39;100.00;99283.75;4969610;28;20110;-70
2024/02/25 08:08:06;;;;;;;4.38;1.35;;;;;;;6.48;100.00;99283.31;4968559;28;20053;-70
2024/02/25 08:10:38;;;;;;;2.17;1.40;;;;;;;6.55;100.00;99279.47;4979583;28;20093;-69
2024/02/25 08:13:07;;;;;;;4.50;1.90;;;;;;;6.64;100.00;99280.78;4972046;28;20102;-68
2024/02/25 08:15:36;;;;;;;1.75;1.30;;;;;;;6.71;100.00;99276.94;4971583;28;20050;-70
2024/02/25 08:18:09;;;;;;;5.32;1.40;;;;;;;6.86;100.00;99283.22;4975001;28;20121;-68
2024/02/25 08:20:44;;;;;;;2.25;1.50;;;;;;;6.98;100.00;99288.75;4998440;28;20456;-68
2024/02/25 08:23:12;;;;;;;2.38;1.60;;;;;;;7.01;100.00;99280.69;4993832;28;20054;-67
2024/02/25 08:25:40;;;;;;;3.30;1.75;;;;;;;6.83;100.00;99265.81;4994717;28;20091;-68
2024/02/25 08:28:08;;;;;;;4.35;1.48;;;;;;;6.84;100.00;99272.78;4977225;28;20067;-69
2024/02/25 08:30:37;;;;;;;2.85;1.42;;;;;;;6.93;100.00;99284.63;4989533;28;20038;-69
2024/02/25 08:33:05;;;;;;;3.78;1.60;;;;;;;7.03;100.00;99280.63;4994393;28;20142;-69
2024/02/25 08:35:34;;;;;;;1.67;1.20;;;;;;;7.12;100.00;99288.03;4991580;28;20046;-68
2024/02/25 08:38:03;;;;;;;2.70;1.60;;;;;;;7.12;100.00;99282.78;4998077;28;20058;-71
2024/02/25 08:40:32;;;;;;;5.07;1.42;;;;;;;7.12;100.00;99285.41;4965656;28;20483;-70
2024/02/25 08:43:00;;;;;;;3.17;1.58;;;;;;;7.10;100.00;99289.91;4963579;28;20054;-70
2024/02/25 08:45:28;;;;;;;1.63;1.27;;;;;;;7.14;100.00;99288.81;4977397;28;20039;-71
2024/02/25 08:47:57;;;;;;;2.40;1.38;;;;;;;7.12;100.00;99287.19;4957203;28;20054;-71
2024/02/25 08:50:26;;;;;;;2.63;1.58;;;;;;;7.21;100.00;99284.97;4964277;28;20046;-71
2024/02/25 08:52:56;;;;;;;2.88;1.80;;;;;;;7.26;100.00;99290.81;4985265;28;20046;-69
2024/02/25 08:55:30;;;;;;;3.85;1.83;;;;;;;7.29;100.00;99293.31;4973069;28;20158;-70
2024/02/25 08:58:00;;;;;;;2.40;1.60;;;;;;;7.36;100.00;99296.50;4972151;28;20046;-69
2024/02/25 09:00:28;;;;;;;2.65;1.60;;;;;;;7.48;100.00;99280.03;4975125;28;20047;-68
2024/02/25 09:02:57;;;;;;;2.13;1.50;;;;;;;7.43;100.00;99265.41;4989032;28;20062;-67
2024/02/25 09:05:25;;;;;;;1.73;1.40;;;;;;;7.62;100.00;99272.28;5006475;28;20077;-68
2024/02/25 09:07:53;;;;;;;4.78;1.60;;;;;;;7.75;100.00;99285.63;5007227;28;20045;-67
2024/02/25 09:10:22;;;;;;;2.95;1.65;;;;;;;7.84;100.00;99279.91;4974766;28;20043;-71
2024/02/25 09:12:53;;;;;;;4.70;1.50;;;;;;;7.77;100.00;99286.41;4983784;28;20047;-72
2024/02/25 09:15:21;;;;;;;;;;;;;;;7.70;100.00;99285.91;4994128;28;20113;-69
2024/02/25 09:17:54;;;;;;;2.65;1.52;;;;;;;7.73;100.00;99283.09;4976752;28;19991;-67
2024/02/25 09:20:24;;;;;;;2.30;1.70;;;;;;;7.86;100.00;99290.38;4991606;28;20043;-70
2024/02/25 09:22:52;;;;;;;2.47;1.65;;;;;;;7.90;100.00;99273.44;4972433;28;20153;-70
2024/02/25 09:25:21;;;;;;;4.07;1.80;;;;;;;8.15;100.00;99287.00;4968027;28;20038;-71
2024/02/25 09:27:52;;;;;;;3.37;1.50;;;;;;;8.26;100.00;99276.72;4985960;28;20116;-70
2024/02/25 09:30:20;;;;;;;1.95;1.40;;;;;;;8.30;100.00;99286.16;4974464;28;20458;-70
2024/02/25 09:32:48;;;;;;;1.92;1.10;;;;;;;8.31;100.00;99281.72;4980187;28;20054;-71
2024/02/25 09:35:16;;;;;;;1.52;1.10;;;;;;;8.35;100.00;99289.41;4975995;28;20133;-71
2024/02/25 09:37:47;;;;;;;2.33;1.15;;;;;;;8.31;100.00;99282.59;4979041;28;20567;-70
2024/02/25 09:40:17;;;;;;;1.52;1.02;;;;;;;8.25;100.00;99280.28;4979681;28;20050;-70
2024/02/25 09:42:46;;;;;;;1.80;1.10;;;;;;;8.18;100.00;99280.72;4948231;28;20043;-71
2024/02/25 09:45:22;;;;;;;1.60;1.10;;;;;;;7.92;100.00;99293.50;4961428;28;20165;-71
2024/02/25 09:47:52;;;;;;;2.20;1.23;;;;;;;7.64;100.00;99288.00;4959901;28;20050;-70
2024/02/25 09:50:21;;;;;;;1.92;1.20;;;;;;;7.51;100.00;99294.84;4954808;28;20530;-69
2024/02/25 09:52:50;;;;;;;2.22;0.80;;;;;;;7.57;100.00;99291.88;4965596;28;20127;-70
2024/02/25 09:55:22;;;;;;;1.58;0.82;;;;;;;7.60;100.00;99275.91;4961120;28;20100;-70
2024/02/25 09:57:53;;;;;;;1.70;1.02;;;;;;;7.70;100.00;99280.63;4970247;28;20083;-70
2024/02/25 10:00:23;;;;;;;1.67;0.98;;;;;;;7.68;100.00;99266.69;4965578;28;20046;-71
2024/02/25 10:02:51;;;;;;;1.20;1.10;;;;;;;7.88;100.00;99276.16;4987533;28;20382;-72
2024/02/25 10:05:24;;;;;;;1.50;0.95;;;;;;;7.95;100.00;99282.81;4973237;28;20165;-72
2024/02/25 10:08:04;;;;;;;1.50;1.20;;;;;;;8.00;100.00;99274.66;4974114;28;20659;-69
2024/02/25 10:10:34;;;;;;;1.58;1.20;;;;;;;8.07;100.00;99274.22;4965354;28;20113;-70
2024/02/25 10:13:04;;;;;;;1.48;1.30;;;;;;;8.22;100.00;99279.59;4969687;28;20066;-70
2024/02/25 10:15:39;;;;;;;1.60;1.20;;;;;;;8.31;100.00;99277.31;4967959;28;20125;-71
2024/02/25 10:18:11;;;;;;;2.08;1.20;;;;;;;8.37;100.00;99260.31;4969961;28;20050;-68
2024/02/25 10:20:41;;;;;;;1.65;1.20;;;;;;;8.56;100.00;99265.41;4965354;28;20047;-72
2024/02/25 10:23:13;;;;;;;1.50;1.00;;;;;;;8.74;100.00;99252.00;4957479;28;20062;-70
2024/02/25 10:25:43;;;;;;;2.10;1.40;;;;;;;9.09;100.00;99267.59;4972876;28;20051;-71
2024/02/25 10:28:13;;;;;;;3.97;1.20;;;;;;;9.26;100.00;99253.41;4981125;28;20051;-70
2024/02/25 10:30:58;;;;;;;2.15;1.27;;;;;;;9.39;100.00;99259.66;4972430;28;20149;-71
2024/02/25 10:33:26;;;;;;;1.85;1.15;;;;;;;9.33;100.00;99257.34;4958260;28;20059;-71
2024/02/25 10:36:06;;;;;;;3.40;1.40;;;;;;;9.39;100.00;99257.84;4980362;28;20053;-70
2024/02/25 10:38:37;;;;;;;2.00;1.30;;;;;;;9.36;100.00;99252.75;4992912;28;20051;-71
2024/02/25 10:41:06;;;;;;;1.40;1.02;;;;;;;9.28;100.00;99257.66;4977042;28;20038;-70
2024/02/25 10:43:36;;;;;;;1.25;1.10;;;;;;;9.34;100.00;99256.41;4997920;28;20057;-69
2024/02/25 10:46:15;;;;;;;3.13;1.10;;;;;;;9.31;100.00;99231.03;4981991;28;20046;-69
2024/02/25 10:48:44;;;;;;;2.10;1.20;;;;;;;9.39;100.00;99243.78;4981055;28;20106;-70
2024/02/25 10:51:15;;;;;;;1.50;0.90;;;;;;;9.44;100.00;99255.75;4971161;28;20061;-70
2024/02/25 10:53:43;;;;;;;1.73;1.15;;;;;;;9.50;100.00;99249.28;4986554;28;20054;-70
2024/02/25 10:56:16;;;;;;;2.63;1.00;;;;;;;9.46;100.00;99245.09;4967865;28;20043;-71
2024/02/25 10:58:46;;;;;;;2.30;1.20;;;;;;;9.51;100.00;99240.41;4982261;28;20412;-69
2024/02/25 11:01:19;;;;;;;1.67;1.17;;;;;;;9.56;100.00;99243.63;4979438;28;20058;-71
2024/02/25 11:03:47;;;;;;;3.30;1.40;;;;;;;9.68;100.00;99239.38;4971888;28;20554;-71
2024/02/25 11:06:33;;;;;;;3.10;1.30;;;;;;;9.73;100.00;99234.66;4985868;28;20139;-70
2024/02/25 11:09:08;;;;;;;1.65;1.27;;;;;;;9.71;100.00;99233.91;4969780;28;20050;-70
2024/02/25 11:11:37;;;;;;;2.67;0.95;;;;;;;9.81;97.72;99227.94;4968466;28;20051;-70
2024/02/25 11:14:06;;;;;;;2.47;1.13;;;;;;;9.70;97.06;99205.75;4973356;28;20098;-69
2024/02/25 11:16:39;;;;;;;3.85;1.20;;;;;;;9.78;98.66;99229.91;4980072;28;20054;-69
2024/02/25 11:19:09;;;;;;;2.95;1.00;;;;;;;9.94;97.32;99227.16;4977260;28;20062;-70
2024/02/25 11:21:37;;;;;;;3.42;1.55;;;;;;;10.16;94.46;99224.88;4972837;28;20082;-69
2024/02/25 11:24:11;;;;;;;2.08;1.15;;;;;;;10.24;90.89;99217.31;4997693;28;20412;-69
2024/02/25 11:26:42;;;;;;;1.63;0.95;;;;;;;10.21;89.43;99220.19;5000988;28;20054;-68
2024/02/25 11:29:21;;;;;;;1.52;1.10;;;;;;;10.09;91.48;99213.81;4987729;28;20043;-70
2024/02/25 11:31:56;;;;;;;1.65;0.90;;;;;;;9.84;93.72;99219.81;4997097;28;20574;-72
2024/02/25 11:34:26;;;;;;;1.95;1.10;;;;;;;9.82;97.79;99216.41;4985002;28;20054;-71
2024/02/25 11:37:03;;;;;;;1.65;1.05;;;;;;;9.65;96.99;99216.63;4998740;28;20058;-70
2024/02/25 11:39:34;;;;;;;1.63;1.00;;;;;;;9.42;98.10;99209.25;4981997;28;20503;-69
2024/02/25 11:42:04;;;;;;;1.30;1.20;;;;;;;9.30;100.00;99191.50;4992294;28;20046;-70
2024/02/25 11:44:36;;;;;;;1.75;0.90;;;;;;;9.48;100.00;99203.59;4981776;28;20055;-69
2024/02/25 11:47:11;;;;;;;2.97;1.00;;;;;;;9.68;100.00;99205.84;4967564;28;20170;-69